Time;durP1;ratioP1;P1;durP2;ratioP2;P2;SDS_P1;SDS_P2;PMS_P1;PMS_P2;Temp;Humidity;BMP_temperature;BMP_pressure;BME280_temperature;BME280_humidity;BME280_pressure;Samples;Min_cycle;Max_cycle;Signal;HPM_P1;HPM_P2
2022/04/30 00:02:09;;;;;;;;;33.75;26.50;;;;;-143.93;100.00;62969.28;5018060;28;8926;-67
2022/04/30 00:04:39;;;;;;;;;25.00;23.50;;;;;-143.93;100.00;62969.28;4994377;28;9596;-67
2022/04/30 00:07:05;;;;;;;;;31.75;30.25;;;;;-143.93;100.00;62969.28;5003248;28;10229;-67
2022/04/30 00:09:30;;;;;;;;;35.00;31.25;;;;;-143.93;100.00;62969.28;5018881;28;8845;-66
2022/04/30 00:11:57;;;;;;;;;35.25;28.50;;;;;-143.93;100.00;62969.28;5008687;28;8842;-66
2022/04/30 00:14:23;;;;;;;;;41.50;29.50;;;;;-143.93;100.00;62969.28;5006631;28;8805;-66
2022/04/30 00:16:48;;;;;;;;;35.25;31.25;;;;;-143.93;100.00;62969.28;5005733;28;8790;-67
2022/04/30 00:19:15;;;;;;;;;32.00;28.00;;;;;-143.93;100.00;62969.28;5012373;28;8818;-66
2022/04/30 00:21:40;;;;;;;;;37.00;32.75;;;;;-143.93;100.00;62969.28;5008756;28;8848;-66
2022/04/30 00:24:06;;;;;;;;;33.50;29.25;;;;;-143.93;100.00;62969.28;5003595;28;8831;-66
2022/04/30 00:26:31;;;;;;;;;32.75;30.00;;;;;-143.93;100.00;62969.28;4992308;28;8820;-67
2022/04/30 00:28:57;;;;;;;;;31.25;29.00;;;;;-143.93;100.00;62969.28;5005387;28;8927;-66
2022/04/30 00:31:22;;;;;;;;;37.50;29.50;;;;;-143.93;100.00;62969.28;5012983;28;8806;-67
2022/04/30 00:33:48;;;;;;;;;36.50;31.25;;;;;-143.93;100.00;62969.28;5006154;28;8901;-67
2022/04/30 00:36:14;;;;;;;;;40.75;29.25;;;;;-143.93;100.00;62969.28;4994751;28;8839;-66
2022/04/30 00:38:41;;;;;;;;;35.00;33.00;;;;;-143.93;100.00;62969.28;5004202;28;8925;-67
2022/04/30 00:41:07;;;;;;;;;38.75;31.75;;;;;-143.93;100.00;62969.28;5013667;28;8855;-67
2022/04/30 00:43:44;;;;;;;;;48.75;31.00;;;;;-143.93;100.00;62969.28;5004470;28;8937;-66
2022/04/30 00:46:13;;;;;;;;;40.25;30.50;;;;;-143.93;100.00;62969.28;5009353;28;8797;-67
2022/04/30 00:48:39;;;;;;;;;34.50;30.25;;;;;-143.93;100.00;62969.28;5003077;28;8830;-67
2022/04/30 00:51:09;;;;;;;;;41.25;32.75;;;;;-143.93;100.00;62969.28;5005101;28;8900;-66
2022/04/30 00:53:35;;;;;;;;;38.00;28.75;;;;;-143.93;100.00;62969.28;4992010;28;8827;-66
2022/04/30 00:56:02;;;;;;;;;31.75;24.75;;;;;-143.93;100.00;62969.28;5013423;28;8799;-66
2022/04/30 00:58:29;;;;;;;;;38.25;33.50;;;;;-143.93;100.00;62969.28;4994791;28;8832;-66
2022/04/30 01:00:56;;;;;;;;;40.50;32.25;;;;;-143.93;100.00;62969.28;5007098;28;8814;-66
2022/04/30 01:03:22;;;;;;;;;35.25;32.50;;;;;-143.93;100.00;62969.28;5010730;28;8807;-66
2022/04/30 01:05:49;;;;;;;;;45.25;35.00;;;;;-143.93;100.00;62969.28;5015733;28;9576;-67
2022/04/30 01:08:14;;;;;;;;;32.50;27.50;;;;;-143.93;100.00;62969.28;5008634;28;8809;-66
2022/04/30 01:10:40;;;;;;;;;39.50;29.00;;;;;-143.93;100.00;62969.28;5008722;28;8849;-66
2022/04/30 01:13:06;;;;;;;;;42.00;30.25;;;;;-143.93;100.00;62969.28;5000527;28;8866;-67
2022/04/30 01:15:33;;;;;;;;;37.00;32.25;;;;;-143.93;100.00;62969.28;4998927;28;8809;-66
2022/04/30 01:17:59;;;;;;;;;40.75;32.00;;;;;-143.93;100.00;62969.28;5003827;28;8911;-66
2022/04/30 01:20:27;;;;;;;;;35.25;30.50;;;;;-143.93;100.00;62969.28;5017288;28;8800;-67
2022/04/30 01:22:56;;;;;;;;;41.25;29.25;;;;;-143.93;100.00;62969.28;5005159;28;8786;-66
2022/04/30 01:25:22;;;;;;;;;43.75;33.75;;;;;-143.93;100.00;62969.28;4995474;28;8806;-66
2022/04/30 01:27:49;;;;;;;;;44.75;32.00;;;;;-143.93;100.00;62969.28;4994529;28;8847;-66
2022/04/30 01:30:15;;;;;;;;;42.75;34.25;;;;;-143.93;100.00;62969.28;4994728;28;8952;-66
2022/04/30 01:38:11;;;;;;;;;37.75;31.00;;;;;-143.93;100.00;62969.28;5008805;28;8825;-67
2022/04/30 01:40:36;;;;;;;;;38.25;32.00;;;;;-143.93;100.00;62969.28;5005030;28;8801;-66
2022/04/30 01:43:05;;;;;;;;;43.50;31.75;;;;;-143.93;100.00;62969.28;5000323;28;12077;-67
2022/04/30 01:45:33;;;;;;;;;34.00;29.75;;;;;-143.93;100.00;62969.28;5017277;28;8957;-66
2022/04/30 01:48:02;;;;;;;;;43.50;33.75;;;;;-143.93;100.00;62969.28;5072516;27;8813;-66
2022/04/30 01:50:27;;;;;;;;;38.00;31.75;;;;;-143.93;100.00;62969.28;5007684;28;8924;-67
2022/04/30 01:52:53;;;;;;;;;39.75;33.50;;;;;-143.93;100.00;62969.28;4993309;28;8881;-67
2022/04/30 01:55:19;;;;;;;;;41.00;30.75;;;;;-143.93;100.00;62969.28;4994072;28;8812;-67
2022/04/30 01:57:44;;;;;;;;;39.75;29.50;;;;;-143.93;100.00;62969.28;4994370;28;8854;-66
2022/04/30 02:00:14;;;;;;;;;42.00;33.00;;;;;-143.93;100.00;62969.28;5005069;28;9565;-66
2022/04/30 02:02:46;;;;;;;;;38.75;30.50;;;;;-143.93;100.00;62969.28;4990617;28;8850;-66
2022/04/30 02:05:13;;;;;;;;;39.50;31.00;;;;;-143.93;100.00;62969.28;5014998;28;8823;-66
2022/04/30 02:08:06;;;;;;;;;40.00;33.00;;;;;-143.93;100.00;62969.28;4993242;28;8827;-66
2022/04/30 02:10:35;;;;;;;;;43.25;34.75;;;;;-143.93;100.00;62969.28;5021985;28;8815;-67
2022/04/30 02:13:00;;;;;;;;;43.75;29.50;;;;;-143.93;100.00;62969.28;5005915;28;9600;-66
2022/04/30 02:15:28;;;;;;;;;42.75;32.50;;;;;-143.93;100.00;62969.28;5002265;28;8800;-67
2022/04/30 02:17:56;;;;;;;;;35.25;27.75;;;;;-143.93;100.00;62969.28;4992135;28;8784;-66
2022/04/30 02:20:27;;;;;;;;;41.50;30.50;;;;;-143.93;100.00;62969.28;5008704;28;8881;-67
2022/04/30 02:22:59;;;;;;;;;40.75;31.75;;;;;-143.93;100.00;62969.28;5007705;28;8826;-66
2022/04/30 02:25:25;;;;;;;;;47.25;31.50;;;;;-143.93;100.00;62969.28;5002437;28;8813;-66
2022/04/30 02:27:54;;;;;;;;;43.75;35.50;;;;;-143.93;100.00;62969.28;5002027;28;8829;-66
2022/04/30 02:30:21;;;;;;;;;39.25;29.50;;;;;-143.93;100.00;62969.28;5006775;28;8878;-66
2022/04/30 02:32:49;;;;;;;;;37.50;30.25;;;;;-143.93;100.00;62969.28;4990920;28;8934;-66
2022/04/30 02:35:20;;;;;;;;;38.75;29.00;;;;;-143.93;100.00;62969.28;4990956;28;8815;-67
2022/04/30 02:37:48;;;;;;;;;40.25;34.00;;;;;-143.93;100.00;62969.28;5012100;28;8797;-67
2022/04/30 02:40:17;;;;;;;;;40.75;31.00;;;;;-143.93;100.00;62969.28;5002640;28;8809;-67
2022/04/30 02:42:44;;;;;;;;;43.00;30.25;;;;;-143.93;100.00;62969.28;5001574;28;8874;-67
2022/04/30 02:45:11;;;;;;;;;38.25;30.75;;;;;-143.93;100.00;62969.28;5010933;27;8812;-67
2022/04/30 02:47:44;;;;;;;;;31.75;27.50;;;;;-143.93;100.00;62969.28;5006039;28;9473;-67
2022/04/30 02:50:12;;;;;;;;;41.25;35.00;;;;;-143.93;100.00;62969.28;5007563;28;8794;-67
2022/04/30 02:52:38;;;;;;;;;38.00;30.25;;;;;-143.93;100.00;62969.28;4994574;28;8816;-68
2022/04/30 02:55:05;;;;;;;;;42.25;34.25;;;;;-143.93;100.00;62969.28;4998092;28;8793;-67
2022/04/30 03:00:38;;;;;;;;;36.00;29.50;;;;;-143.93;100.00;62969.28;4999639;28;8817;-67
2022/04/30 03:03:03;;;;;;;;;35.50;27.25;;;;;-143.93;100.00;62969.28;5002166;27;8808;-67
2022/04/30 03:05:29;;;;;;;;;38.25;27.50;;;;;-143.93;100.00;62969.28;5005342;28;9033;-67
2022/04/30 03:07:55;;;;;;;;;34.00;26.75;;;;;-143.93;100.00;62969.28;5003189;28;8793;-67
2022/04/30 03:10:20;;;;;;;;;42.75;33.25;;;;;-143.93;100.00;62969.28;5006538;28;8845;-67
2022/04/30 03:12:48;;;;;;;;;44.50;32.50;;;;;-143.93;100.00;62969.28;5006057;28;8854;-67
2022/04/30 03:15:13;;;;;;;;;28.50;27.25;;;;;-143.93;100.00;62969.28;4993223;28;8798;-67
2022/04/30 03:23:06;;;;;;;;;36.50;32.25;;;;;-143.93;100.00;62969.28;5008886;28;8801;-67
2022/04/30 03:25:32;;;;;;;;;37.75;29.50;;;;;-143.93;100.00;62969.28;5004466;28;8892;-67
2022/04/30 03:27:57;;;;;;;;;35.75;31.75;;;;;-143.93;100.00;62969.28;5006501;28;8910;-67
2022/04/30 03:30:23;;;;;;;;;39.33;28.67;;;;;-143.93;100.00;62969.28;5002888;28;19235;-67
2022/04/30 03:32:49;;;;;;;;;39.75;29.50;;;;;-143.93;100.00;62969.28;4999936;28;9172;-67
2022/04/30 03:35:14;;;;;;;;;37.25;28.50;;;;;-143.93;100.00;62969.28;4990110;28;8904;-67
2022/04/30 03:37:40;;;;;;;;;36.50;27.50;;;;;-143.93;100.00;62969.28;5023150;28;10696;-67
2022/04/30 03:40:05;;;;;;;;;42.00;32.00;;;;;-143.93;100.00;62969.28;5005443;28;8970;-67
2022/04/30 03:42:31;;;;;;;;;37.75;27.00;;;;;-143.93;100.00;62969.28;5008791;28;8911;-67
2022/04/30 03:44:57;;;;;;;;;38.75;33.00;;;;;-143.93;100.00;62969.28;5002419;28;8816;-67
2022/04/30 03:47:22;;;;;;;;;37.75;30.25;;;;;-143.93;100.00;62969.28;5005263;28;8818;-67
2022/04/30 03:49:48;;;;;;;;;40.25;32.50;;;;;-143.93;100.00;62969.28;4991967;28;8831;-67
2022/04/30 03:52:13;;;;;;;;;38.75;26.00;;;;;-143.93;100.00;62969.28;5003925;28;22087;-67
2022/04/30 03:54:41;;;;;;;;;34.75;30.00;;;;;-143.93;100.00;62969.28;5007052;28;8838;-67
2022/04/30 03:57:07;;;;;;;;;34.00;24.25;;;;;-143.93;100.00;62969.28;5001128;28;8892;-67
2022/04/30 03:59:33;;;;;;;;;40.00;29.75;;;;;-143.93;100.00;62969.28;5003740;28;8824;-67
2022/04/30 04:01:59;;;;;;;;;36.75;30.25;;;;;-143.93;100.00;62969.28;4991557;28;8816;-67
2022/04/30 04:04:25;;;;;;;;;37.75;29.25;;;;;-143.93;100.00;62969.28;4992592;28;8894;-67
2022/04/30 04:06:50;;;;;;;;;43.00;32.00;;;;;-143.93;100.00;62969.28;5015386;28;9524;-67
2022/04/30 04:09:16;;;;;;;;;26.25;21.50;;;;;-143.93;100.00;62969.28;5000492;28;8855;-67
2022/04/30 04:11:41;;;;;;;;;37.75;32.25;;;;;-143.93;100.00;62969.28;5015306;28;8824;-67
2022/04/30 04:19:34;;;;;;;;;34.25;28.75;;;;;-143.93;100.00;62969.28;4995677;28;8804;-67
2022/04/30 04:22:00;;;;;;;;;41.67;32.33;;;;;-143.93;100.00;62969.28;5002132;28;16670;-67
2022/04/30 04:27:09;;;;;;;;;38.25;29.75;;;;;-143.93;100.00;62969.28;5006292;28;9699;-67
2022/04/30 04:29:35;;;;;;;;;44.25;30.25;;;;;-143.93;100.00;62969.28;5007344;28;8862;-67
2022/04/30 04:32:00;;;;;;;;;39.50;30.75;;;;;-143.93;100.00;62969.28;4993958;28;9587;-67
2022/04/30 04:34:26;;;;;;;;;39.25;31.00;;;;;-143.93;100.00;62969.28;5000701;28;8866;-67
2022/04/30 04:36:51;;;;;;;;;40.00;32.33;;;;;-143.93;100.00;62969.28;5021743;28;17124;-67
2022/04/30 04:39:16;;;;;;;;;37.00;32.50;;;;;-143.93;100.00;62969.28;5003538;28;9561;-67
2022/04/30 04:41:42;;;;;;;;;44.50;33.25;;;;;-143.93;100.00;62969.28;5040269;28;8844;-67
2022/04/30 04:44:09;;;;;;;;;29.75;25.00;;;;;-143.93;100.00;62969.28;5005670;28;9533;-67
2022/04/30 04:46:35;;;;;;;;;43.00;33.00;;;;;-143.93;100.00;62969.28;5004251;28;8813;-67
2022/04/30 04:49:01;;;;;;;;;36.75;27.25;;;;;-143.93;100.00;62969.28;5009502;27;8833;-67
2022/04/30 04:51:27;;;;;;;;;33.50;27.75;;;;;-143.93;100.00;62969.28;5011030;28;8872;-67
2022/04/30 04:53:54;;;;;;;;;53.00;32.75;;;;;-143.93;100.00;62969.28;4992938;28;8820;-67
2022/04/30 04:56:20;;;;;;;;;36.25;28.25;;;;;-143.93;100.00;62969.28;5001753;28;9602;-67
2022/04/30 04:58:45;;;;;;;;;40.00;34.00;;;;;-143.93;100.00;62969.28;5003727;28;8910;-67
2022/04/30 05:01:10;;;;;;;;;43.25;29.00;;;;;-143.93;100.00;62969.28;5004691;28;8813;-67
2022/04/30 05:03:36;;;;;;;;;38.00;30.00;;;;;-143.93;100.00;62969.28;5003938;28;8832;-67
2022/04/30 05:06:01;;;;;;;;;50.00;29.67;;;;;-143.93;100.00;62969.28;4993934;28;14658;-67
2022/04/30 05:08:26;;;;;;;;;40.00;33.00;;;;;-143.93;100.00;62969.28;4991162;28;10061;-67
2022/04/30 05:10:52;;;;;;;;;42.75;33.50;;;;;-143.93;100.00;62969.28;4994210;28;8811;-67
2022/04/30 05:13:17;;;;;;;;;42.75;28.75;;;;;-143.93;100.00;62969.28;5005324;28;9643;-67
2022/04/30 05:15:43;;;;;;;;;35.25;29.50;;;;;-143.93;100.00;62969.28;5009727;28;8934;-68
2022/04/30 05:18:09;;;;;;;;;42.00;30.75;;;;;-143.93;100.00;62969.28;5007935;28;8798;-67
2022/04/30 05:20:34;;;;;;;;;40.00;29.25;;;;;-143.93;100.00;62969.28;5007277;28;9616;-67
2022/04/30 05:23:00;;;;;;;;;39.00;30.00;;;;;-143.93;100.00;62969.28;5008440;28;8807;-67
2022/04/30 05:25:25;;;;;;;;;45.75;29.75;;;;;-143.93;100.00;62969.28;4993600;28;8819;-67
2022/04/30 05:27:50;;;;;;;;;44.50;35.25;;;;;-143.93;100.00;62969.28;4994576;28;8808;-67
2022/04/30 05:30:16;;;;;;;;;43.00;33.50;;;;;-143.93;100.00;62969.28;4994843;28;8837;-67
2022/04/30 05:32:41;;;;;;;;;44.75;30.25;;;;;-143.93;100.00;62969.28;5023324;28;8818;-67
2022/04/30 05:35:07;;;;;;;;;41.00;31.50;;;;;-143.93;100.00;62969.28;5004964;28;8898;-67
2022/04/30 05:37:32;;;;;;;;;45.50;32.25;;;;;-143.93;100.00;62969.28;5003255;28;8848;-67
2022/04/30 05:39:57;;;;;;;;;42.50;32.75;;;;;-143.93;100.00;62969.28;5003942;28;10746;-67
2022/04/30 05:42:24;;;;;;;;;39.25;33.25;;;;;-143.93;100.00;62969.28;5018521;28;8882;-67
2022/04/30 05:44:49;;;;;;;;;41.75;31.25;;;;;-143.93;100.00;62969.28;5005635;28;8823;-67
2022/04/30 05:47:14;;;;;;;;;40.00;33.33;;;;;-143.93;100.00;62969.28;4991725;28;13606;-67
2022/04/30 05:49:40;;;;;;;;;41.00;32.50;;;;;-143.93;100.00;62969.28;4994040;28;9444;-67
2022/04/30 05:52:05;;;;;;;;;40.00;34.00;;;;;-143.93;100.00;62969.28;5003453;28;8849;-67
2022/04/30 05:54:30;;;;;;;;;48.75;32.00;;;;;-143.93;100.00;62969.28;5018699;28;8820;-67
2022/04/30 05:56:56;;;;;;;;;50.75;36.25;;;;;-143.93;100.00;62969.28;5005221;28;8825;-67
2022/04/30 05:59:21;;;;;;;;;43.50;34.50;;;;;-143.93;100.00;62969.28;4991237;27;8842;-67
2022/04/30 06:01:46;;;;;;;;;48.50;35.75;;;;;-143.93;100.00;62969.28;5022104;28;9593;-67
2022/04/30 06:04:12;;;;;;;;;49.50;35.00;;;;;-143.93;100.00;62969.28;5001019;28;9626;-67
2022/04/30 06:06:37;;;;;;;;;42.25;32.75;;;;;-143.93;100.00;62969.28;5002431;28;8805;-67
2022/04/30 06:09:02;;;;;;;;;36.50;34.50;;;;;-143.93;100.00;62969.28;5004643;28;8963;-68
2022/04/30 06:11:28;;;;;;;;;48.25;37.50;;;;;-143.93;100.00;62969.28;5012930;28;8925;-67
2022/04/30 06:13:53;;;;;;;;;49.00;36.75;;;;;-143.93;100.00;62969.28;5009341;28;8813;-67
2022/04/30 06:16:18;;;;;;;;;49.50;34.25;;;;;-143.93;100.00;62969.28;5008193;28;8821;-67
2022/04/30 06:18:43;;;;;;;;;39.67;36.67;;;;;-143.93;100.00;62969.28;5001439;28;17417;-67
2022/04/30 06:21:09;;;;;;;;;44.50;36.75;;;;;-143.93;100.00;62969.28;5006781;28;9666;-67
2022/04/30 06:23:34;;;;;;;;;50.00;36.25;;;;;-143.93;100.00;62969.28;5010007;28;8829;-67
2022/04/30 06:25:59;;;;;;;;;42.67;37.00;;;;;-143.93;100.00;62969.28;4992650;28;21497;-67
2022/04/30 06:28:25;;;;;;;;;44.50;35.50;;;;;-143.93;100.00;62969.28;4993510;28;9806;-67
2022/04/30 06:30:51;;;;;;;;;42.25;35.00;;;;;-143.93;100.00;62969.28;4993934;28;8796;-67
2022/04/30 06:33:16;;;;;;;;;49.50;34.00;;;;;-143.93;100.00;62969.28;5001916;28;16082;-67
2022/04/30 06:35:43;;;;;;;;;43.75;34.75;;;;;-143.93;100.00;62969.28;4990625;28;8835;-67
2022/04/30 06:38:09;;;;;;;;;53.00;35.50;;;;;-143.93;100.00;62969.28;4991692;28;8824;-67
2022/04/30 06:40:34;;;;;;;;;46.75;32.25;;;;;-143.93;100.00;62969.28;5013203;28;8822;-67
2022/04/30 06:43:00;;;;;;;;;44.50;35.00;;;;;-143.93;100.00;62969.28;5010905;28;8826;-67
2022/04/30 06:45:25;;;;;;;;;45.50;36.25;;;;;-143.93;100.00;62969.28;5001697;28;8844;-68
2022/04/30 06:47:50;;;;;;;;;40.25;34.75;;;;;-143.93;100.00;62969.28;4998676;28;8807;-68
2022/04/30 06:50:16;;;;;;;;;48.00;32.25;;;;;-143.93;100.00;62969.28;5000435;28;14410;-67
2022/04/30 06:58:10;;;;;;;;;34.25;29.75;;;;;-143.93;100.00;62969.28;5001880;28;8805;-68
2022/04/30 07:03:23;;;;;;;;;40.00;33.00;;;;;-143.93;100.00;62969.28;5027246;28;8810;-68
2022/04/30 07:05:50;;;;;;;;;45.75;34.00;;;;;-143.93;100.00;62969.28;5006391;28;8820;-68
2022/04/30 07:08:15;;;;;;;;;42.50;36.00;;;;;-143.93;100.00;62969.28;5012763;28;8838;-68
2022/04/30 07:10:41;;;;;;;;;39.00;33.25;;;;;-143.93;100.00;62969.28;5003549;28;8826;-68
2022/04/30 07:13:06;;;;;;;;;34.00;30.50;;;;;-143.93;100.00;62969.28;5037656;28;8857;-68
2022/04/30 07:15:31;;;;;;;;;38.00;33.25;;;;;-143.93;100.00;62969.28;5044148;27;8793;-68
2022/04/30 07:17:57;;;;;;;;;40.00;32.75;;;;;-143.93;100.00;62969.28;5014498;28;8825;-68
2022/04/30 07:20:22;;;;;;;;;37.00;28.00;;;;;-143.93;100.00;62969.28;4997258;28;9034;-68
2022/04/30 07:22:47;;;;;;;;;31.25;24.50;;;;;-143.93;100.00;62969.28;4996136;28;8950;-68
2022/04/30 07:25:14;;;;;;;;;38.25;31.25;;;;;-143.93;100.00;62969.28;4998315;28;8920;-68
2022/04/30 07:27:39;;;;;;;;;36.75;33.50;;;;;-143.93;100.00;62969.28;5000981;28;8814;-68
2022/04/30 07:30:06;;;;;;;;;36.50;31.75;;;;;-143.93;100.00;62969.28;4994124;28;8825;-68
2022/04/30 07:32:31;;;;;;;;;38.75;31.00;;;;;-143.93;100.00;62969.28;5006043;28;8875;-68
2022/04/30 07:34:56;;;;;;;;;39.25;34.00;;;;;-143.93;100.00;62969.28;4993727;28;8788;-68
2022/04/30 07:37:22;;;;;;;;;40.25;31.00;;;;;-143.93;100.00;62969.28;5032888;28;11295;-68
2022/04/30 07:39:47;;;;;;;;;30.50;24.75;;;;;-143.93;100.00;62969.28;5036123;27;8839;-68
2022/04/30 07:42:12;;;;;;;;;37.33;32.33;;;;;-143.93;100.00;62969.28;5001587;28;16629;-68
2022/04/30 07:44:38;;;;;;;;;33.00;29.75;;;;;-143.93;100.00;62969.28;5005389;28;9683;-68
2022/04/30 07:47:04;;;;;;;;;35.50;32.25;;;;;-143.93;100.00;62969.28;5009477;28;8833;-68
2022/04/30 07:49:31;;;;;;;;;39.75;31.75;;;;;-143.93;100.00;62969.28;5016835;28;8840;-68
2022/04/30 07:51:56;;;;;;;;;43.00;29.00;;;;;-143.93;100.00;62969.28;5013727;28;8802;-68
2022/04/30 07:54:23;;;;;;;;;83.75;62.50;;;;;-143.93;100.00;62969.28;5000978;28;9612;-68
2022/04/30 07:56:53;;;;;;;;;40.00;34.75;;;;;-143.93;100.00;62969.28;5011951;27;8809;-68
2022/04/30 07:59:19;;;;;;;;;32.00;25.25;;;;;-143.93;100.00;62969.28;5006165;28;8937;-68
2022/04/30 08:01:44;;;;;;;;;32.00;28.50;;;;;-143.93;100.00;62969.28;5004558;28;8808;-68
2022/04/30 08:04:10;;;;;;;;;32.50;26.00;;;;;-143.93;100.00;62969.28;5008457;28;8813;-68
2022/04/30 08:06:35;;;;;;;;;35.00;27.75;;;;;-143.93;100.00;62969.28;5003465;28;11828;-68
2022/04/30 08:09:00;;;;;;;;;36.00;29.00;;;;;-143.93;100.00;62969.28;4991133;28;20270;-68
2022/04/30 08:11:26;;;;;;;;;34.75;29.25;;;;;-143.93;100.00;62969.28;4999424;28;8941;-68
2022/04/30 08:13:51;;;;;;;;;28.00;26.00;;;;;-143.93;100.00;62969.28;4995027;28;19912;-68
2022/04/30 08:16:16;;;;;;;;;36.00;28.00;;;;;-143.93;100.00;62969.28;5006740;28;21128;-68
2022/04/30 08:18:42;;;;;;;;;40.50;27.00;;;;;-143.93;100.00;62969.28;5002914;28;8833;-68
2022/04/30 08:21:08;;;;;;;;;30.00;23.50;;;;;-143.93;100.00;62969.28;5003087;28;8959;-68
2022/04/30 08:23:34;;;;;;;;;30.00;25.00;;;;;-143.93;100.00;62969.28;5007800;28;8812;-68
2022/04/30 08:26:00;;;;;;;;;33.25;25.50;;;;;-143.93;100.00;62969.28;5005529;28;8881;-68
2022/04/30 08:28:25;;;;;;;;;28.25;24.25;;;;;-143.93;100.00;62969.28;5003139;28;8813;-68
2022/04/30 08:30:51;;;;;;;;;30.00;28.75;;;;;-143.93;100.00;62969.28;5012951;28;8830;-68
2022/04/30 08:33:16;;;;;;;;;29.50;25.00;;;;;-143.93;100.00;62969.28;4995123;28;8809;-68
2022/04/30 08:35:41;;;;;;;;;27.25;24.00;;;;;-143.93;100.00;62969.28;4991986;28;8854;-68
2022/04/30 08:38:07;;;;;;;;;30.25;25.25;;;;;-143.93;100.00;62969.28;4993763;28;8819;-68
2022/04/30 08:40:34;;;;;;;;;30.00;27.50;;;;;-143.93;100.00;62969.28;5001374;28;9544;-68
2022/04/30 08:43:14;;;;;;;;;32.50;28.50;;;;;-143.93;100.00;62969.28;5003844;28;8797;-68
2022/04/30 08:45:41;;;;;;;;;29.25;25.00;;;;;-143.93;100.00;62969.28;5011081;28;8943;-68
2022/04/30 08:48:10;;;;;;;;;32.00;26.00;;;;;-143.93;100.00;62969.28;5019425;28;8810;-68
2022/04/30 08:50:36;;;;;;;;;28.00;25.00;;;;;-143.93;100.00;62969.28;4991103;28;8797;-68
2022/04/30 08:53:02;;;;;;;;;29.75;22.50;;;;;-143.93;100.00;62969.28;4994550;28;8799;-69
2022/04/30 08:55:28;;;;;;;;;23.00;23.00;;;;;-143.93;100.00;62969.28;5003298;28;9630;-68
2022/04/30 08:57:53;;;;;;;;;24.25;22.50;;;;;-143.93;100.00;62969.28;5004074;28;8860;-68
2022/04/30 09:00:19;;;;;;;;;24.00;19.50;;;;;-143.93;100.00;62969.28;5013729;28;9591;-68
2022/04/30 09:02:52;;;;;;;;;25.25;21.25;;;;;-143.93;100.00;62969.28;4991648;28;8808;-66
2022/04/30 09:05:18;;;;;;;;;27.00;24.25;;;;;-143.93;100.00;62969.28;4992830;28;8788;-66
2022/04/30 09:07:53;;;;;;;;;26.75;20.75;;;;;-143.93;100.00;62969.28;4994038;28;8843;-67
2022/04/30 09:10:23;;;;;;;;;30.50;24.75;;;;;-143.93;100.00;62969.28;5012161;28;8823;-67
2022/04/30 09:12:50;;;;;;;;;23.75;19.50;;;;;-143.93;100.00;62969.28;5004736;28;8807;-67
2022/04/30 09:15:16;;;;;;;;;46.00;38.00;;;;;-143.93;100.00;62969.28;5002821;28;8897;-67
2022/04/30 09:17:41;;;;;;;;;27.75;26.25;;;;;-143.93;100.00;62969.28;5005956;28;9621;-67
2022/04/30 09:20:07;;;;;;;;;23.00;21.25;;;;;-143.93;100.00;62969.28;5006150;28;8817;-68
2022/04/30 09:22:38;;;;;;;;;22.00;22.00;;;;;-143.93;100.00;62969.28;5004362;28;8877;-68
2022/04/30 09:25:12;;;;;;;;;18.50;18.00;;;;;-143.93;100.00;62969.28;4996231;28;8803;-67
2022/04/30 09:27:49;;;;;;;;;26.00;21.25;;;;;-143.93;100.00;62969.28;4994514;28;8819;-67
2022/04/30 09:30:20;;;;;;;;;22.50;17.75;;;;;-143.93;100.00;62969.28;5004435;28;8931;-67
2022/04/30 09:32:56;;;;;;;;;24.50;21.00;;;;;-143.93;100.00;62969.28;4992169;28;8807;-67
2022/04/30 09:38:06;;;;;;;;;20.00;16.00;;;;;-143.93;100.00;62969.28;5008609;28;8904;-68
2022/04/30 09:40:32;;;;;;;;;19.25;17.50;;;;;-143.93;100.00;62969.28;5004616;28;19070;-72
2022/04/30 09:42:58;;;;;;;;;14.75;12.25;;;;;-143.93;100.00;62969.28;5002530;28;8813;-71
2022/04/30 09:45:34;;;;;;;;;15.50;15.50;;;;;-143.93;100.00;62969.28;5009992;28;8842;-68
2022/04/30 09:48:02;;;;;;;;;10.75;10.50;;;;;-143.93;100.00;62969.28;5010549;28;8908;-70
2022/04/30 09:56:06;;;;;;;;;16.25;15.25;;;;;-143.93;100.00;62969.28;5006621;28;9580;-69
2022/04/30 09:58:35;;;;;;;;;15.25;14.00;;;;;-143.93;100.00;62969.28;5001359;28;8819;-69
2022/04/30 10:01:01;;;;;;;;;13.00;11.50;;;;;-143.93;100.00;62969.28;5002468;28;8882;-67
2022/04/30 10:03:30;;;;;;;;;17.75;15.25;;;;;-143.93;100.00;62969.28;5002471;28;8796;-71
2022/04/30 10:06:06;;;;;;;;;15.25;14.00;;;;;-143.93;100.00;62969.28;4992832;28;8853;-67
2022/04/30 10:08:40;;;;;;;;;14.75;13.25;;;;;-143.93;100.00;62969.28;5005215;28;8839;-68
2022/04/30 10:11:29;;;;;;;;;14.50;12.00;;;;;-143.93;100.00;62969.28;4996835;28;8789;-69
2022/04/30 10:14:09;;;;;;;;;13.50;13.50;;;;;-143.93;100.00;62969.28;5007777;28;8884;-69
2022/04/30 10:16:59;;;;;;;;;12.00;9.75;;;;;-143.93;100.00;62969.28;4998557;28;8835;-69
2022/04/30 10:19:22;;;;;;;;;10.50;9.50;;;;;-143.93;100.00;62969.28;5008893;28;8840;-66
2022/04/30 10:22:08;;;;;;;;;11.75;11.00;;;;;-143.93;100.00;62969.28;4998036;28;8843;-66
2022/04/30 10:24:33;;;;;;;;;18.00;17.25;;;;;-143.93;100.00;62969.28;4998840;28;9654;-67
2022/04/30 10:26:59;;;;;;;;;13.75;12.25;;;;;-143.93;100.00;62969.28;4990905;28;8819;-68
2022/04/30 10:29:24;;;;;;;;;14.00;12.00;;;;;-143.93;100.00;62969.28;5006052;28;8825;-66
2022/04/30 10:31:50;;;;;;;;;16.25;14.00;;;;;-143.93;100.00;62969.28;5010501;28;15627;-68
2022/04/30 10:34:15;;;;;;;;;17.00;16.25;;;;;-143.93;100.00;62969.28;4997898;28;8812;-67
2022/04/30 10:36:41;;;;;;;;;13.00;13.00;;;;;-143.93;100.00;62969.28;4994554;28;8860;-66
2022/04/30 10:39:09;;;;;;;;;13.25;10.75;;;;;-143.93;100.00;62969.28;5014138;28;8942;-66
2022/04/30 10:41:43;;;;;;;;;18.00;14.25;;;;;-143.93;100.00;62969.28;4990654;28;9004;-67
2022/04/30 10:44:08;;;;;;;;;13.25;12.25;;;;;-143.93;100.00;62969.28;5017252;28;8794;-67
2022/04/30 10:46:38;;;;;;;;;12.75;12.00;;;;;-143.93;100.00;62969.28;5002228;28;8820;-67
2022/04/30 10:49:08;;;;;;;;;16.75;14.50;;;;;-143.93;100.00;62969.28;5006493;28;8953;-69
2022/04/30 10:51:42;;;;;;;;;13.00;11.75;;;;;-143.93;100.00;62969.28;5000641;28;8801;-66
2022/04/30 10:54:18;;;;;;;;;16.25;12.50;;;;;-143.93;100.00;62969.28;5006474;28;9671;-68
2022/04/30 10:56:45;;;;;;;;;15.00;12.25;;;;;-143.93;100.00;62969.28;4997753;28;8870;-67
2022/04/30 10:59:10;;;;;;;;;13.00;12.00;;;;;-143.93;100.00;62969.28;4998396;28;8821;-67
2022/04/30 11:01:36;;;;;;;;;12.75;12.75;;;;;-143.93;100.00;62969.28;5015001;28;8823;-68
2022/04/30 11:04:02;;;;;;;;;10.00;9.00;;;;;-143.93;100.00;62969.28;5005166;28;8829;-68
2022/04/30 11:06:30;;;;;;;;;24.50;22.50;;;;;-143.93;100.00;62969.28;5001325;28;8886;-68
2022/04/30 11:09:05;;;;;;;;;11.25;9.50;;;;;-143.93;100.00;62969.28;5004945;28;8804;-68
2022/04/30 11:11:32;;;;;;;;;11.75;11.00;;;;;-143.93;100.00;62969.28;5001331;28;8796;-67
2022/04/30 11:14:09;;;;;;;;;17.00;14.50;;;;;-143.93;100.00;62969.28;4998327;28;8894;-71
2022/04/30 11:16:41;;;;;;;;;15.00;13.00;;;;;-143.93;100.00;62969.28;4993127;28;9579;-67
2022/04/30 11:19:10;;;;;;;;;15.00;13.00;;;;;-143.93;100.00;62969.28;5001308;28;8835;-67
2022/04/30 11:21:44;;;;;;;;;11.75;9.00;;;;;-143.93;100.00;62969.28;5009834;28;8911;-67
2022/04/30 11:24:10;;;;;;;;;13.25;10.50;;;;;-143.93;100.00;62969.28;4996729;28;8793;-67
2022/04/30 11:26:41;;;;;;;;;16.75;12.75;;;;;-143.93;100.00;62969.28;4992040;28;8834;-67
2022/04/30 11:29:11;;;;;;;;;11.25;9.50;;;;;-143.93;100.00;62969.28;5012677;28;8842;-67
2022/04/30 11:31:37;;;;;;;;;13.00;11.75;;;;;-143.93;100.00;62969.28;5016236;28;8842;-66
2022/04/30 11:34:13;;;;;;;;;9.50;8.50;;;;;-143.93;100.00;62969.28;5001263;28;8812;-66
2022/04/30 11:36:47;;;;;;;;;8.25;7.00;;;;;-143.93;100.00;62969.28;4995650;28;8804;-67
2022/04/30 11:39:14;;;;;;;;;16.00;11.75;;;;;-143.93;100.00;62969.28;4999127;28;9590;-66
2022/04/30 11:41:44;;;;;;;;;11.50;10.00;;;;;-143.93;100.00;62969.28;4997406;28;8816;-66